Time;durP1;ratioP1;P1;durP2;ratioP2;P2;SDS_P1;SDS_P2;PMS_P1;PMS_P2;Temp;Humidity;BMP_temperature;BMP_pressure;BME280_temperature;BME280_humidity;BME280_pressure;Samples;Min_cycle;Max_cycle;Signal;HPM_P1;HPM_P2
2021/01/12 00:02:20;;;;;;;16.95;9.77;;;1.80;99.90;;;;;;5054291;28;20037;-81
2021/01/12 00:04:47;;;;;;;13.75;8.55;;;2.00;99.90;;;;;;5070768;28;20045;-80
2021/01/12 00:07:13;;;;;;;13.80;8.25;;;2.00;99.90;;;;;;5061668;28;20022;-81
2021/01/12 00:09:40;;;;;;;13.65;8.60;;;2.00;99.90;;;;;;5067379;28;20076;-80
2021/01/12 00:12:08;;;;;;;13.52;7.90;;;1.90;99.90;;;;;;5059434;28;20033;-80
2021/01/12 00:14:34;;;;;;;14.40;9.48;;;1.90;99.90;;;;;;5063221;28;20051;-79
2021/01/12 00:17:07;;;;;;;13.38;8.15;;;1.90;99.90;;;;;;5062770;28;20057;-80
2021/01/12 00:19:34;;;;;;;16.85;10.07;;;1.90;99.90;;;;;;5071725;28;20032;-80
2021/01/12 00:22:02;;;;;;;15.80;8.82;;;1.90;99.90;;;;;;5072388;28;20074;-80
2021/01/12 00:24:28;;;;;;;15.13;8.82;;;;;;;;;;5071888;28;20027;-80
2021/01/12 00:26:54;;;;;;;13.77;8.43;;;2.00;99.90;;;;;;5076249;28;20100;-79
2021/01/12 00:29:20;;;;;;;13.57;8.52;;;;;;;;;;5065364;28;20043;-80
2021/01/12 00:31:46;;;;;;;14.27;8.95;;;1.90;99.90;;;;;;5067227;28;20025;-80
2021/01/12 00:34:13;;;;;;;17.45;9.60;;;;;;;;;;5076710;28;20025;-80
2021/01/12 00:36:47;;;;;;;16.00;9.98;;;2.10;99.90;;;;;;5070715;28;20092;-80
2021/01/12 00:39:14;;;;;;;14.35;8.63;;;;;;;;;;5077289;28;20075;-81
2021/01/12 00:41:40;;;;;;;15.52;8.82;;;;;;;;;;5067575;28;20162;-79
2021/01/12 00:44:06;;;;;;;14.52;8.57;;;2.00;99.90;;;;;;5068514;28;20028;-80
2021/01/12 00:46:33;;;;;;;15.88;9.32;;;2.00;99.90;;;;;;5049383;28;20404;-80
2021/01/12 00:49:00;;;;;;;14.02;8.85;;;;;;;;;;5069740;28;20119;-79
2021/01/12 00:51:36;;;;;;;16.88;9.15;;;2.00;99.90;;;;;;5053238;28;20037;-79
2021/01/12 00:54:13;;;;;;;14.05;8.98;;;2.00;99.90;;;;;;5058039;28;20486;-80
2021/01/12 00:56:39;;;;;;;17.17;9.63;;;2.00;99.90;;;;;;5072758;28;20025;-80
2021/01/12 00:59:06;;;;;;;14.65;9.45;;;;;;;;;;5066220;28;20033;-81
2021/01/12 01:01:33;;;;;;;13.05;8.20;;;2.00;99.90;;;;;;5053446;28;20055;-80
2021/01/12 01:03:58;;;;;;;15.05;9.40;;;2.00;99.90;;;;;;5054004;28;20041;-80
2021/01/12 01:06:24;;;;;;;14.00;8.63;;;1.90;99.90;;;;;;5050651;28;20029;-80
2021/01/12 01:08:51;;;;;;;15.35;9.13;;;2.10;99.90;;;;;;5050518;28;20029;-80
2021/01/12 01:11:17;;;;;;;16.30;10.77;;;2.10;99.90;;;;;;5055514;28;20032;-80
2021/01/12 01:13:43;;;;;;;17.52;9.75;;;2.10;99.90;;;;;;5040779;28;20045;-79
2021/01/12 01:16:11;;;;;;;15.80;9.23;;;2.10;99.90;;;;;;5053757;28;20025;-80
2021/01/12 01:18:38;;;;;;;17.23;9.48;;;2.10;99.90;;;;;;5046495;28;20657;-79
2021/01/12 01:21:04;;;;;;;18.15;9.25;;;;;;;;;;5057807;28;20101;-80
2021/01/12 01:23:30;;;;;;;15.63;9.10;;;2.10;99.90;;;;;;5059545;28;20056;-80
2021/01/12 01:25:56;;;;;;;17.10;9.57;;;2.10;99.90;;;;;;5037552;28;20018;-79
2021/01/12 01:28:22;;;;;;;14.65;9.05;;;2.20;99.90;;;;;;5059750;28;20017;-80
2021/01/12 01:30:49;;;;;;;15.75;9.68;;;2.20;99.90;;;;;;5061533;28;20025;-78
2021/01/12 01:33:14;;;;;;;15.80;9.75;;;2.20;99.90;;;;;;5058275;28;20048;-80
2021/01/12 01:35:42;;;;;;;16.45;9.82;;;2.20;99.90;;;;;;5064484;28;20029;-80
2021/01/12 01:38:08;;;;;;;15.43;9.68;;;2.30;99.90;;;;;;5067802;28;20396;-80
2021/01/12 01:40:33;;;;;;;17.13;9.75;;;2.30;99.90;;;;;;5064107;28;20045;-80
2021/01/12 01:42:59;;;;;;;14.60;9.23;;;2.20;99.90;;;;;;5071792;28;20162;-80
2021/01/12 01:45:26;;;;;;;17.27;9.80;;;2.30;99.90;;;;;;5069711;28;20119;-79
2021/01/12 01:47:53;;;;;;;15.52;9.95;;;2.30;99.90;;;;;;5073172;28;20048;-80
2021/01/12 01:50:20;;;;;;;16.05;10.07;;;2.30;99.90;;;;;;5083678;28;20055;-80
2021/01/12 01:52:54;;;;;;;15.82;10.43;;;2.30;99.90;;;;;;5055135;28;20025;-80
2021/01/12 01:55:21;;;;;;;17.98;10.20;;;2.30;99.90;;;;;;5063943;28;20024;-79
2021/01/12 01:57:47;;;;;;;14.55;9.70;;;;;;;;;;5066561;28;20029;-80
2021/01/12 02:00:16;;;;;;;18.45;11.00;;;2.20;99.90;;;;;;5074929;28;20025;-80
2021/01/12 02:03:05;;;;;;;17.15;11.18;;;2.00;99.90;;;;;;5073512;28;20108;-81
2021/01/12 02:05:33;;;;;;;16.92;10.60;;;1.90;99.90;;;;;;5062346;28;20030;-79
2021/01/12 02:08:05;;;;;;;19.65;12.10;;;1.80;99.90;;;;;;5063640;28;20025;-79
2021/01/12 02:10:35;;;;;;;16.30;10.75;;;1.80;99.90;;;;;;5032630;28;20056;-81
2021/01/12 02:13:02;;;;;;;20.23;12.05;;;1.70;99.90;;;;;;5068111;28;20489;-79
2021/01/12 02:15:29;;;;;;;18.50;10.93;;;1.70;99.90;;;;;;5058240;28;20025;-81
2021/01/12 02:17:56;;;;;;;20.08;12.38;;;1.50;99.90;;;;;;5075674;28;20041;-79
2021/01/12 02:20:22;;;;;;;19.55;11.15;;;1.50;99.90;;;;;;5067367;28;20044;-80
2021/01/12 02:23:14;;;;;;;21.65;11.35;;;1.40;99.90;;;;;;5043944;28;20033;-81
2021/01/12 02:25:41;;;;;;;24.58;12.57;;;1.40;99.90;;;;;;5080649;28;20048;-81
2021/01/12 02:28:12;;;;;;;19.42;11.60;;;1.40;99.90;;;;;;5081212;28;20032;-81
2021/01/12 02:30:39;;;;;;;19.42;11.13;;;1.20;99.90;;;;;;5085343;28;20526;-82
2021/01/12 02:33:05;;;;;;;20.38;12.55;;;1.40;99.90;;;;;;5045161;28;20025;-80
2021/01/12 02:35:34;;;;;;;22.23;12.10;;;1.30;99.90;;;;;;5052618;28;20032;-80
2021/01/12 02:38:01;;;;;;;19.17;11.85;;;1.30;99.90;;;;;;5069759;28;20033;-80
2021/01/12 02:40:27;;;;;;;19.90;11.32;;;1.30;99.90;;;;;;5058674;28;20017;-81
2021/01/12 02:42:53;;;;;;;23.35;12.05;;;1.30;99.90;;;;;;5051487;28;20045;-82
2021/01/12 02:45:20;;;;;;;21.15;12.23;;;;;;;;;;5054429;28;20052;-80
2021/01/12 02:47:46;;;;;;;22.80;13.13;;;1.30;99.90;;;;;;5059317;28;20046;-80
2021/01/12 02:50:12;;;;;;;21.83;12.98;;;1.30;99.90;;;;;;5035085;28;20026;-80
2021/01/12 02:52:42;;;;;;;21.83;11.68;;;1.40;99.90;;;;;;5060479;28;20033;-80
2021/01/12 02:55:09;;;;;;;29.88;13.75;;;1.20;99.90;;;;;;5058272;28;20026;-81
2021/01/12 02:57:35;;;;;;;24.73;13.95;;;1.20;99.90;;;;;;5060915;28;20112;-81
2021/01/12 03:00:03;;;;;;;25.70;13.88;;;1.30;99.90;;;;;;5033876;28;20029;-79
2021/01/12 03:02:28;;;;;;;22.83;12.38;;;1.40;99.90;;;;;;5040463;28;20028;-82
2021/01/12 03:04:54;;;;;;;22.85;12.15;;;1.40;99.90;;;;;;5053904;28;20049;-81
2021/01/12 03:07:19;;;;;;;21.30;12.82;;;1.40;99.90;;;;;;5048053;28;20032;-81
2021/01/12 03:09:45;;;;;;;22.15;13.07;;;2.40;99.90;;;;;;5051508;28;20394;-83
2021/01/12 03:12:10;;;;;;;22.85;12.55;;;1.30;99.90;;;;;;5059295;28;20017;-79
2021/01/12 03:14:36;;;;;;;21.15;12.27;;;1.20;99.90;;;;;;5055674;28;20025;-83
2021/01/12 03:17:02;;;;;;;22.27;13.30;;;1.30;99.90;;;;;;5052390;28;20056;-83
2021/01/12 03:19:27;;;;;;;23.33;14.52;;;1.30;99.90;;;;;;5052343;28;20443;-82
2021/01/12 03:21:53;;;;;;;22.70;14.13;;;1.20;99.90;;;;;;5053375;28;20027;-83
2021/01/12 03:24:18;;;;;;;21.85;13.73;;;1.30;99.90;;;;;;5057581;28;20475;-83
2021/01/12 03:26:44;;;;;;;22.65;14.23;;;1.30;99.90;;;;;;5067597;28;20029;-80
2021/01/12 03:29:09;;;;;;;24.73;14.30;;;1.30;99.90;;;;;;5051981;28;20062;-81
2021/01/12 03:31:36;;;;;;;21.75;13.80;;;1.30;99.90;;;;;;5065900;28;20041;-81
2021/01/12 03:34:02;;;;;;;25.60;15.25;;;1.40;99.90;;;;;;5059889;28;20040;-83
2021/01/12 03:36:27;;;;;;;25.50;13.18;;;2.10;99.90;;;;;;5051003;28;20025;-81
2021/01/12 03:38:53;;;;;;;23.02;12.98;;;1.10;99.90;;;;;;5057548;28;20035;-83
2021/01/12 03:41:18;;;;;;;25.02;14.32;;;1.30;99.90;;;;;;5071773;28;20481;-81
2021/01/12 03:43:44;;;;;;;23.95;14.00;;;;;;;;;;5051834;28;20037;-82
2021/01/12 03:46:10;;;;;;;20.55;13.15;;;1.40;99.90;;;;;;5069735;28;20025;-79
2021/01/12 03:48:35;;;;;;;22.70;14.02;;;1.40;99.90;;;;;;5069531;28;20033;-80
2021/01/12 03:51:01;;;;;;;25.08;14.85;;;1.50;99.90;;;;;;5057472;28;20037;-81
2021/01/12 03:53:27;;;;;;;25.05;14.00;;;1.50;99.90;;;;;;5051210;28;20037;-82
2021/01/12 03:55:53;;;;;;;25.02;15.23;;;1.50;99.90;;;;;;5060194;28;20024;-82
2021/01/12 03:58:18;;;;;;;24.90;15.23;;;1.50;99.90;;;;;;5057848;28;20510;-79
2021/01/12 04:00:44;;;;;;;23.55;14.90;;;1.50;99.90;;;;;;5053632;28;20021;-81
2021/01/12 04:03:10;;;;;;;25.33;15.50;;;1.50;99.90;;;;;;5053272;28;20034;-84
2021/01/12 04:05:38;;;;;;;23.60;15.65;;;1.60;99.90;;;;;;5048182;28;20060;-82
2021/01/12 04:08:08;;;;;;;25.75;15.38;;;1.60;99.90;;;;;;5052362;28;20045;-82
2021/01/12 04:10:34;;;;;;;24.05;15.52;;;1.40;99.90;;;;;;5050209;28;20025;-83
2021/01/12 04:13:03;;;;;;;23.20;15.07;;;1.70;99.90;;;;;;5032968;28;20028;-83
2021/01/12 04:15:28;;;;;;;26.70;16.17;;;1.70;99.90;;;;;;5052859;28;20116;-82
2021/01/12 04:17:54;;;;;;;23.63;14.95;;;1.70;99.90;;;;;;5055810;28;20045;-81
2021/01/12 04:20:20;;;;;;;23.45;15.18;;;1.70;99.90;;;;;;5046586;28;20413;-85
2021/01/12 04:22:46;;;;;;;23.35;15.05;;;;;;;;;;5065128;28;20025;-82
2021/01/12 04:25:13;;;;;;;26.35;14.82;;;;;;;;;;5063127;28;20057;-80
2021/01/12 04:27:38;;;;;;;23.52;14.95;;;1.60;99.90;;;;;;5058022;28;20071;-83
2021/01/12 04:30:05;;;;;;;24.38;15.00;;;1.60;99.90;;;;;;5054653;28;20029;-84
2021/01/12 04:32:31;;;;;;;26.42;16.20;;;;;;;;;;5035564;28;20021;-81
2021/01/12 04:34:56;;;;;;;25.73;15.82;;;1.60;99.90;;;;;;5061258;28;20033;-81
2021/01/12 04:37:22;;;;;;;25.95;16.05;;;1.70;99.90;;;;;;5057781;28;20033;-82
2021/01/12 04:39:47;;;;;;;23.33;15.30;;;1.60;99.90;;;;;;5066391;28;20285;-82
2021/01/12 04:42:13;;;;;;;26.75;16.70;;;1.70;99.90;;;;;;5048282;28;20029;-82
2021/01/12 04:44:39;;;;;;;27.58;17.20;;;1.70;99.90;;;;;;5056849;28;20071;-85
2021/01/12 04:47:06;;;;;;;24.38;16.58;;;0.10;99.90;;;;;;5047335;28;20018;-82
2021/01/12 04:49:31;;;;;;;25.38;16.85;;;1.60;99.90;;;;;;5060388;28;20036;-79
2021/01/12 04:51:59;;;;;;;26.73;16.38;;;1.60;99.90;;;;;;5075886;28;20025;-80
2021/01/12 04:54:34;;;;;;;24.17;15.40;;;1.60;99.90;;;;;;5072954;28;20056;-81
2021/01/12 04:57:00;;;;;;;27.38;15.63;;;1.50;99.90;;;;;;5067036;28;20059;-81
2021/01/12 04:59:33;;;;;;;28.58;17.10;;;;;;;;;;5082732;28;20028;-80
2021/01/12 05:02:00;;;;;;;25.33;16.30;;;1.60;99.90;;;;;;5062485;28;20021;-81
2021/01/12 05:04:26;;;;;;;24.17;15.75;;;;;;;;;;5059625;28;20061;-80
2021/01/12 05:06:55;;;;;;;26.05;16.15;;;1.70;99.90;;;;;;5070497;28;20055;-83
2021/01/12 05:09:22;;;;;;;25.95;17.48;;;1.70;99.90;;;;;;5071696;28;20060;-81
2021/01/12 05:11:48;;;;;;;25.23;16.80;;;1.70;99.90;;;;;;5072734;28;20023;-82
2021/01/12 05:14:16;;;;;;;26.90;17.98;;;1.60;99.90;;;;;;5054794;28;20029;-83
2021/01/12 05:16:47;;;;;;;30.58;17.98;;;1.60;99.90;;;;;;5064370;28;20030;-79
2021/01/12 05:19:34;;;;;;;28.48;17.50;;;1.70;99.90;;;;;;5062325;28;20033;-82
2021/01/12 05:22:04;;;;;;;26.45;16.77;;;1.70;99.90;;;;;;5058714;28;20029;-80
2021/01/12 05:24:40;;;;;;;24.25;15.70;;;1.60;99.90;;;;;;5058594;28;20025;-80
2021/01/12 05:27:09;;;;;;;28.48;17.70;;;1.60;99.90;;;;;;5056875;28;20052;-80
2021/01/12 05:29:36;;;;;;;26.38;17.30;;;1.80;99.90;;;;;;5094333;28;20025;-80
2021/01/12 05:32:04;;;;;;;25.45;17.20;;;1.80;99.90;;;;;;5074611;28;20029;-81
2021/01/12 05:34:35;;;;;;;28.92;16.63;;;1.80;99.90;;;;;;5035495;28;20087;-81
2021/01/12 05:37:03;;;;;;;24.90;15.60;;;1.70;99.90;;;;;;5054135;28;20037;-80
2021/01/12 05:39:29;;;;;;;26.00;16.70;;;;;;;;;;5056417;28;20028;-79
2021/01/12 05:41:57;;;;;;;23.65;16.23;;;1.80;99.90;;;;;;5056956;28;20400;-80
2021/01/12 05:44:25;;;;;;;22.10;15.30;;;1.80;99.90;;;;;;5066678;28;20029;-81
2021/01/12 05:46:55;;;;;;;28.08;17.67;;;1.80;99.90;;;;;;5052789;28;20026;-80
2021/01/12 05:49:23;;;;;;;25.55;15.73;;;1.80;99.90;;;;;;5060384;28;20029;-81
2021/01/12 05:51:51;;;;;;;26.05;17.02;;;1.70;99.90;;;;;;5048169;28;20432;-79
2021/01/12 05:54:27;;;;;;;25.30;15.95;;;1.50;99.90;;;;;;5050422;28;20029;-81
2021/01/12 05:56:59;;;;;;;25.13;15.93;;;1.80;99.90;;;;;;5075235;28;20037;-81
2021/01/12 05:59:26;;;;;;;;;;;1.70;99.90;;;;;;5078504;28;20033;-80
2021/01/12 06:01:54;;;;;;;25.00;14.75;;;1.70;99.90;;;;;;5058347;28;20282;-80
2021/01/12 06:04:20;;;;;;;25.98;15.82;;;1.70;99.90;;;;;;5054223;28;20033;-80
2021/01/12 06:06:49;;;;;;;24.90;16.30;;;1.70;99.90;;;;;;5063319;28;20039;-80
2021/01/12 06:09:15;;;;;;;24.48;15.63;;;1.70;99.90;;;;;;5086103;28;20796;-81
2021/01/12 06:11:44;;;;;;;23.75;16.10;;;1.70;99.90;;;;;;5071826;28;20048;-82
2021/01/12 06:14:15;;;;;;;27.50;17.48;;;1.70;99.90;;;;;;5079929;28;20029;-83
2021/01/12 06:16:44;;;;;;;26.55;16.63;;;1.70;99.90;;;;;;5076453;28;20020;-76
2021/01/12 06:19:14;;;;;;;33.17;18.35;;;1.80;99.90;;;;;;5077425;28;20051;-76
2021/01/12 06:21:55;;;;;;;27.27;17.15;;;1.80;99.90;;;;;;5059933;28;20021;-76
2021/01/12 06:24:30;;;;;;;23.63;16.55;;;1.80;99.90;;;;;;5055651;28;20025;-78
2021/01/12 06:26:57;;;;;;;24.02;15.63;;;1.80;99.90;;;;;;5080677;28;20029;-79
2021/01/12 06:29:23;;;;;;;27.40;17.55;;;1.80;99.90;;;;;;5061097;28;20089;-84
2021/01/12 06:31:50;;;;;;;25.67;16.27;;;1.80;99.90;;;;;;5081819;28;20021;-79
2021/01/12 06:34:20;;;;;;;25.00;17.70;;;1.80;99.90;;;;;;5076216;28;20021;-81
2021/01/12 06:36:56;;;;;;;26.77;15.45;;;1.80;99.90;;;;;;5057509;28;20058;-81
2021/01/12 06:39:41;;;;;;;26.90;16.10;;;1.70;99.90;;;;;;5059364;28;20026;-82
2021/01/12 06:42:12;;;;;;;28.67;16.73;;;1.70;99.90;;;;;;5052301;28;20040;-82
2021/01/12 06:44:39;;;;;;;24.00;16.10;;;1.80;99.90;;;;;;5072154;28;20029;-81
2021/01/12 06:47:06;;;;;;;26.08;17.40;;;1.80;99.90;;;;;;5055821;28;20028;-82
2021/01/12 06:49:33;;;;;;;27.27;18.92;;;1.80;99.90;;;;;;5065122;28;20009;-82
2021/01/12 06:52:09;;;;;;;25.05;16.33;;;1.90;99.90;;;;;;5079700;28;20020;-84
2021/01/12 06:54:42;;;;;;;24.92;15.70;;;1.80;99.90;;;;;;5067292;28;20013;-79
2021/01/12 06:57:13;;;;;;;24.10;15.93;;;1.90;99.90;;;;;;5057753;28;20057;-79
2021/01/12 06:59:41;;;;;;;27.10;17.00;;;1.80;99.90;;;;;;5077273;28;20121;-80
2021/01/12 07:02:27;;;;;;;22.67;16.02;;;1.90;99.90;;;;;;5035043;28;20033;-82
2021/01/12 07:05:05;;;;;;;23.98;15.80;;;1.90;99.90;;;;;;5060121;28;20056;-81
2021/01/12 07:07:33;;;;;;;22.05;15.30;;;1.90;99.90;;;;;;5045912;28;20045;-80
2021/01/12 07:10:00;;;;;;;26.00;16.42;;;1.90;99.90;;;;;;5060536;28;20431;-77
2021/01/12 07:12:28;;;;;;;29.95;17.60;;;1.90;99.90;;;;;;5056653;28;20379;-81
2021/01/12 07:14:56;;;;;;;24.23;16.40;;;1.90;99.90;;;;;;5073133;28;20052;-82
2021/01/12 07:17:24;;;;;;;25.25;16.70;;;1.90;99.90;;;;;;5053666;28;20091;-77
2021/01/12 07:19:50;;;;;;;25.88;16.90;;;2.00;99.90;;;;;;5054965;28;20032;-78
2021/01/12 07:22:16;;;;;;;23.50;14.75;;;2.00;99.90;;;;;;5039397;28;20029;-79
2021/01/12 07:24:45;;;;;;;24.15;14.75;;;2.00;99.90;;;;;;5055380;28;20112;-77
2021/01/12 07:27:16;;;;;;;26.10;15.18;;;2.00;99.90;;;;;;5053327;28;20048;-84
2021/01/12 07:29:47;;;;;;;24.17;15.25;;;2.00;99.90;;;;;;5055828;28;20484;-83
2021/01/12 07:32:24;;;;;;;;;;;2.00;99.90;;;;;;5062945;28;20037;-81
2021/01/12 07:34:57;;;;;;;20.95;13.00;;;1.90;99.90;;;;;;5060618;28;19997;-81
2021/01/12 07:37:37;;;;;;;20.92;13.73;;;2.00;99.90;;;;;;5054327;28;20025;-83
2021/01/12 07:40:05;;;;;;;19.65;14.35;;;2.00;99.90;;;;;;5036439;28;20511;-83
2021/01/12 07:42:30;;;;;;;21.02;14.27;;;2.00;99.90;;;;;;5076989;28;20020;-85
2021/01/12 07:44:56;;;;;;;22.60;15.00;;;2.00;99.90;;;;;;5080361;28;20035;-86
2021/01/12 07:47:21;;;;;;;21.98;14.10;;;2.10;99.90;;;;;;5090585;28;20028;-80
2021/01/12 07:49:49;;;;;;;18.23;13.38;;;2.10;99.90;;;;;;5082479;28;20021;-84
2021/01/12 07:52:15;;;;;;;23.88;14.88;;;;;;;;;;5077514;28;20093;-79
2021/01/12 07:54:42;;;;;;;20.02;13.10;;;;;;;;;;5086130;28;20048;-79
2021/01/12 07:57:09;;;;;;;17.75;12.57;;;2.10;99.90;;;;;;5052082;28;20124;-79
2021/01/12 07:59:35;;;;;;;23.80;13.35;;;;;;;;;;5058331;28;20045;-81
2021/01/12 08:02:01;;;;;;;19.75;13.82;;;;;;;;;;5064694;28;20083;-78
2021/01/12 08:04:28;;;;;;;19.98;13.70;;;;;;;;;;5094287;28;20049;-78
2021/01/12 08:06:54;;;;;;;20.70;14.70;;;;;;;;;;5073860;28;20489;-82
2021/01/12 08:09:24;;;;;;;16.05;11.52;;;2.10;99.90;;;;;;5077719;28;20021;-79
2021/01/12 08:11:54;;;;;;;17.90;12.65;;;2.00;99.90;;;;;;5076989;28;20029;-78
2021/01/12 08:14:23;;;;;;;19.17;12.55;;;2.00;99.90;;;;;;5074708;28;20008;-82
2021/01/12 08:16:51;;;;;;;18.35;11.50;;;2.10;99.90;;;;;;5085616;28;20044;-80
2021/01/12 08:19:21;;;;;;;15.48;11.32;;;2.10;99.90;;;;;;5084068;28;20059;-81
2021/01/12 08:21:47;;;;;;;14.90;9.43;;;2.10;99.90;;;;;;5064043;28;20025;-82
2021/01/12 08:24:19;;;;;;;17.80;11.55;;;2.20;99.90;;;;;;5073327;28;20024;-79
2021/01/12 08:26:45;;;;;;;19.67;13.02;;;2.20;99.90;;;;;;5059158;28;20024;-82
2021/01/12 08:29:12;;;;;;;19.20;12.43;;;2.20;99.90;;;;;;5078088;28;20060;-80
2021/01/12 08:32:08;;;;;;;28.30;18.35;;;2.20;99.90;;;;;;5059277;28;20021;-81
2021/01/12 08:34:59;;;;;;;13.55;9.77;;;2.20;99.90;;;;;;5071078;28;20086;-81
2021/01/12 08:37:26;;;;;;;44.45;27.58;;;2.20;99.90;;;;;;5075059;28;20037;-81
2021/01/12 08:39:53;;;;;;;12.80;8.90;;;2.20;99.90;;;;;;5045538;28;20020;-81
2021/01/12 08:42:20;;;;;;;12.32;8.70;;;2.30;99.90;;;;;;5056777;28;20048;-80
2021/01/12 08:44:47;;;;;;;14.30;9.00;;;2.30;99.90;;;;;;5069046;28;20025;-81
2021/01/12 08:47:13;;;;;;;13.02;8.95;;;2.30;99.90;;;;;;5077680;28;20419;-80
2021/01/12 08:49:39;;;;;;;12.35;9.00;;;2.20;99.90;;;;;;5040003;28;20037;-80
2021/01/12 08:52:06;;;;;;;11.50;7.57;;;2.20;99.90;;;;;;5072154;28;20040;-81
2021/01/12 08:54:32;;;;;;;11.93;7.78;;;2.20;99.90;;;;;;5080229;28;20027;-83
2021/01/12 08:57:00;;;;;;;9.95;7.70;;;2.20;99.90;;;;;;5076413;28;20033;-79
2021/01/12 08:59:31;;;;;;;13.10;9.30;;;2.30;99.90;;;;;;5078510;28;20035;-79
2021/01/12 09:01:58;;;;;;;13.33;9.00;;;2.20;99.90;;;;;;5081440;28;20033;-81
2021/01/12 09:04:27;;;;;;;9.32;7.07;;;2.30;99.90;;;;;;5065430;28;20343;-78
2021/01/12 09:07:04;;;;;;;10.02;7.13;;;2.30;99.90;;;;;;5066292;28;20381;-80
2021/01/12 09:09:29;;;;;;;8.02;6.63;;;2.40;99.90;;;;;;5068554;28;20097;-79
2021/01/12 09:12:04;;;;;;;11.30;7.13;;;2.40;99.90;;;;;;5078508;28;20384;-81
2021/01/12 09:14:30;;;;;;;9.95;7.25;;;2.40;99.90;;;;;;5076507;28;20039;-80
2021/01/12 09:17:04;;;;;;;11.55;7.50;;;2.60;99.90;;;;;;5082675;28;20048;-80
2021/01/12 09:19:37;;;;;;;9.07;7.57;;;2.40;99.90;;;;;;5076667;28;20039;-82
2021/01/12 09:22:15;;;;;;;9.95;6.68;;;2.40;99.90;;;;;;5079128;28;20031;-81
2021/01/12 09:24:52;;;;;;;9.52;6.53;;;2.40;99.90;;;;;;5079926;28;20024;-81
2021/01/12 09:27:23;;;;;;;9.35;7.40;;;2.50;99.90;;;;;;5053171;28;20057;-78
2021/01/12 09:29:49;;;;;;;11.13;7.45;;;2.40;99.90;;;;;;5056965;28;20114;-80
2021/01/12 09:32:34;;;;;;;9.93;7.00;;;2.50;99.90;;;;;;5048064;28;20037;-81
2021/01/12 09:35:03;;;;;;;8.35;6.00;;;2.60;99.90;;;;;;5070220;28;20025;-79
2021/01/12 09:37:30;;;;;;;8.38;5.38;;;2.50;99.90;;;;;;5059359;28;20054;-82
2021/01/12 09:39:58;;;;;;;8.20;5.60;;;2.50;99.90;;;;;;5050511;28;20028;-81
2021/01/12 09:42:27;;;;;;;8.23;6.13;;;2.40;99.90;;;;;;5074240;28;20033;-80
2021/01/12 09:44:54;;;;;;;7.60;5.82;;;2.50;99.90;;;;;;5079859;28;20021;-82
2021/01/12 09:47:20;;;;;;;8.20;5.45;;;2.50;99.90;;;;;;5089435;28;20075;-83
2021/01/12 09:49:46;;;;;;;8.55;5.32;;;2.50;99.90;;;;;;5078609;28;20055;-82
2021/01/12 09:52:13;;;;;;;8.20;6.30;;;2.50;99.90;;;;;;5089776;28;20032;-84
2021/01/12 09:54:45;;;;;;;8.25;6.25;;;2.60;99.90;;;;;;5089546;28;20028;-83
2021/01/12 09:57:14;;;;;;;8.88;5.15;;;2.60;99.90;;;;;;5088557;28;20044;-77
2021/01/12 09:59:40;;;;;;;7.85;5.35;;;2.60;99.90;;;;;;5072820;28;20021;-79
2021/01/12 10:02:07;;;;;;;8.02;5.72;;;2.60;99.90;;;;;;5080652;28;20049;-81
2021/01/12 10:04:33;;;;;;;6.90;5.60;;;2.60;99.90;;;;;;5079405;28;20110;-78
2021/01/12 10:06:59;;;;;;;8.93;6.05;;;2.60;99.90;;;;;;5083579;28;20017;-78
2021/01/12 10:09:26;;;;;;;7.85;5.43;;;2.60;99.90;;;;;;5078470;28;20019;-80
2021/01/12 10:11:53;;;;;;;7.15;5.60;;;2.60;99.90;;;;;;5074677;28;20024;-79
2021/01/12 10:14:20;;;;;;;8.63;5.45;;;2.70;99.90;;;;;;5086480;28;20024;-79
2021/01/12 10:16:46;;;;;;;7.45;5.72;;;2.60;99.90;;;;;;5080341;28;20021;-78
2021/01/12 10:19:12;;;;;;;7.75;5.28;;;2.70;99.90;;;;;;5075097;28;20104;-78
2021/01/12 10:21:37;;;;;;;7.78;5.78;;;2.60;99.90;;;;;;5077702;28;20122;-79
2021/01/12 10:24:03;;;;;;;10.25;5.80;;;2.60;99.90;;;;;;5082821;28;20106;-78
2021/01/12 10:26:29;;;;;;;7.25;5.65;;;2.60;99.90;;;;;;5062155;28;20041;-82
2021/01/12 10:28:55;;;;;;;7.18;5.57;;;2.60;99.90;;;;;;5064563;28;20012;-77
2021/01/12 10:31:21;;;;;;;6.38;5.00;;;2.60;99.90;;;;;;5067498;28;20029;-78
2021/01/12 10:33:48;;;;;;;6.63;5.10;;;2.60;99.90;;;;;;5055440;28;20359;-81
2021/01/12 10:36:15;;;;;;;8.32;5.90;;;2.60;99.90;;;;;;5086684;28;20058;-81
2021/01/12 10:38:41;;;;;;;6.40;5.25;;;2.50;99.90;;;;;;5080519;28;20036;-78
2021/01/12 10:41:07;;;;;;;7.03;5.38;;;2.60;99.90;;;;;;5061704;28;20140;-78
2021/01/12 10:43:33;;;;;;;8.18;5.45;;;2.70;99.90;;;;;;5059563;28;20039;-81
2021/01/12 10:46:00;;;;;;;6.47;5.38;;;2.60;99.90;;;;;;5082401;28;20024;-80
2021/01/12 10:48:25;;;;;;;8.90;6.30;;;2.60;99.90;;;;;;5079721;28;20024;-80
2021/01/12 10:50:51;;;;;;;6.90;4.78;;;2.60;99.90;;;;;;5079700;28;20035;-79
2021/01/12 10:53:16;;;;;;;6.57;4.85;;;2.60;99.90;;;;;;5070886;28;20073;-79
2021/01/12 10:55:42;;;;;;;8.52;6.10;;;2.40;99.90;;;;;;5076876;28;20025;-81
2021/01/12 10:58:08;;;;;;;7.60;5.55;;;;;;;;;;5081415;28;20044;-83
2021/01/12 11:00:35;;;;;;;6.38;5.30;;;2.60;99.90;;;;;;5074689;28;20127;-80
2021/01/12 11:03:05;;;;;;;7.50;4.85;;;2.60;99.90;;;;;;5070988;28;20032;-79
2021/01/12 11:05:31;;;;;;;7.57;5.05;;;2.60;99.90;;;;;;5080654;28;20048;-82
2021/01/12 11:07:56;;;;;;;9.43;6.10;;;2.60;99.90;;;;;;5064506;28;20380;-79
2021/01/12 11:10:22;;;;;;;7.07;5.00;;;2.70;99.90;;;;;;5079529;28;20025;-81
2021/01/12 11:12:48;;;;;;;7.72;5.43;;;2.80;99.90;;;;;;5066966;28;20461;-82
2021/01/12 11:15:14;;;;;;;6.65;4.93;;;2.80;99.90;;;;;;5084590;28;20039;-80
2021/01/12 11:17:40;;;;;;;7.18;4.80;;;2.90;99.90;;;;;;5060022;28;20028;-80
2021/01/12 11:20:07;;;;;;;6.50;5.15;;;2.90;99.90;;;;;;5072347;28;20369;-80
2021/01/12 11:22:33;;;;;;;6.70;5.18;;;2.90;99.90;;;;;;5082556;28;20060;-81
2021/01/12 11:25:04;;;;;;;5.63;4.45;;;2.90;99.90;;;;;;5076043;28;20033;-80
2021/01/12 11:27:31;;;;;;;6.85;4.63;;;3.00;99.90;;;;;;5056250;28;20045;-80
2021/01/12 11:29:57;;;;;;;5.93;4.97;;;3.00;99.90;;;;;;5091722;28;20082;-79
2021/01/12 11:32:23;;;;;;;7.22;4.55;;;3.00;99.90;;;;;;5082462;28;20381;-81
2021/01/12 11:34:48;;;;;;;7.55;5.18;;;2.90;99.90;;;;;;5075545;28;20025;-80
2021/01/12 11:37:15;;;;;;;7.10;5.22;;;3.00;99.90;;;;;;5062552;28;20028;-81
2021/01/12 11:39:41;;;;;;;6.95;5.20;;;3.00;99.90;;;;;;5076092;28;20024;-79
2021/01/12 11:42:13;;;;;;;6.97;4.95;;;3.00;99.90;;;;;;5087780;28;20033;-79
2021/01/12 11:44:40;;;;;;;7.78;5.70;;;3.00;99.90;;;;;;5070008;28;20025;-79
2021/01/12 11:47:06;;;;;;;7.55;5.60;;;3.20;99.90;;;;;;5084715;28;20064;-80
2021/01/12 11:49:33;;;;;;;7.93;5.20;;;;;;;;;;5070688;28;20021;-78
2021/01/12 11:51:58;;;;;;;6.63;4.95;;;3.10;99.90;;;;;;5079511;28;20042;-78
2021/01/12 11:54:24;;;;;;;8.23;5.53;;;3.10;99.90;;;;;;5078730;28;20037;-79
2021/01/12 11:56:52;;;;;;;7.28;5.18;;;3.10;99.90;;;;;;5082158;28;20066;-79
2021/01/12 11:59:19;;;;;;;8.30;5.45;;;3.10;99.90;;;;;;5064620;28;20029;-79
2021/01/12 12:01:49;;;;;;;7.72;5.40;;;3.10;99.90;;;;;;5065090;28;20025;-78
2021/01/12 12:04:16;;;;;;;7.47;5.90;;;3.10;99.90;;;;;;5050765;28;20044;-78
2021/01/12 12:06:46;;;;;;;8.27;6.10;;;3.00;99.90;;;;;;5074546;28;20036;-78
2021/01/12 12:09:12;;;;;;;7.72;5.57;;;3.10;99.90;;;;;;5063582;28;20044;-79
2021/01/12 12:11:38;;;;;;;8.88;6.45;;;3.20;99.90;;;;;;5067734;28;20028;-78
2021/01/12 12:14:05;;;;;;;8.70;6.30;;;3.20;99.90;;;;;;5068204;28;20040;-78
2021/01/12 12:16:31;;;;;;;11.48;6.05;;;3.20;99.90;;;;;;5084384;28;20067;-79
2021/01/12 12:18:56;;;;;;;8.93;6.55;;;3.30;99.90;;;;;;5083234;28;20049;-78
2021/01/12 12:21:22;;;;;;;13.75;8.95;;;3.30;99.90;;;;;;5070802;28;20088;-78
2021/01/12 12:23:48;;;;;;;11.45;6.65;;;3.40;99.90;;;;;;5076471;28;20021;-78
2021/01/12 12:26:14;;;;;;;9.77;5.78;;;3.40;99.90;;;;;;5055194;28;20056;-80
2021/01/12 12:28:40;;;;;;;9.95;5.68;;;3.50;99.90;;;;;;5085022;28;20123;-80
2021/01/12 12:31:07;;;;;;;9.23;5.68;;;3.50;99.90;;;;;;5077906;28;20057;-81
2021/01/12 12:33:33;;;;;;;8.45;5.63;;;3.40;99.90;;;;;;5073886;28;20033;-79
2021/01/12 12:36:16;;;;;;;8.82;5.53;;;3.50;99.90;;;;;;5077854;28;20078;-81
2021/01/12 12:38:44;;;;;;;6.95;5.63;;;;;;;;;;5055330;28;20040;-79
2021/01/12 12:41:17;;;;;;;10.05;6.85;;;3.50;99.90;;;;;;5075946;28;20033;-79
2021/01/12 12:43:46;;;;;;;30.98;16.88;;;3.60;99.90;;;;;;5074815;28;20076;-81
2021/01/12 12:46:13;;;;;;;34.90;20.02;;;3.60;99.90;;;;;;5064196;28;20052;-79
2021/01/12 12:48:38;;;;;;;7.47;6.00;;;3.60;99.90;;;;;;5072886;28;20044;-80
2021/01/12 12:51:05;;;;;;;18.33;10.77;;;3.60;99.90;;;;;;5076040;28;20059;-85
2021/01/12 12:53:33;;;;;;;12.18;8.70;;;3.60;99.90;;;;;;5062547;28;20103;-83
2021/01/12 12:56:00;;;;;;;8.77;6.05;;;3.60;99.90;;;;;;5072956;28;20079;-82
2021/01/12 12:58:27;;;;;;;7.47;5.78;;;3.60;99.90;;;;;;5083282;28;20036;-81